createdAt,value
2022-08-26T00:01:00.218Z,15.82
2022-08-26T00:06:02.150Z,15.02
2022-08-26T00:11:04.567Z,15.95
2022-08-26T00:16:08.885Z,16.13
2022-08-26T00:21:13.300Z,17.30
2022-08-26T00:26:15.383Z,16.38
2022-08-26T00:31:17.107Z,17.65
2022-08-26T00:36:20.377Z,16.25
2022-08-26T00:41:22.249Z,16.75
2022-08-26T00:46:29.164Z,17.92
2022-08-26T00:51:31.498Z,18.05
2022-08-26T00:56:47.056Z,16.23
2022-08-26T01:01:51.649Z,15.93
2022-08-26T01:06:54.574Z,17.88
2022-08-26T01:11:59.372Z,15.90
2022-08-26T01:17:05.056Z,15.97
2022-08-26T01:22:12.291Z,18.52
2022-08-26T01:27:17.992Z,18.88
2022-08-26T01:32:22.465Z,18.92
2022-08-26T01:37:32.945Z,18.50
2022-08-26T01:42:34.795Z,18.88
2022-08-26T01:47:38.440Z,17.98
2022-08-26T01:52:43.230Z,18.35
2022-08-26T01:57:47.554Z,17.80
2022-08-26T02:03:13.795Z,17.15
2022-08-26T02:08:20.526Z,17.10
2022-08-26T02:13:30.055Z,17.85
2022-08-26T02:18:35.056Z,17.75
2022-08-26T02:23:38.190Z,17.77
2022-08-26T02:28:56.385Z,19.15
2022-08-26T02:34:13.525Z,18.90
2022-08-26T02:39:22.295Z,18.98
2022-08-26T02:44:24.187Z,19.60
2022-08-26T02:49:27.834Z,18.90
2022-08-26T02:54:29.635Z,19.50
2022-08-26T02:59:32.440Z,18.77
2022-08-26T03:04:34.202Z,19.10
2022-08-26T03:09:35.910Z,19.83
2022-08-26T03:14:37.893Z,19.38
2022-08-26T03:19:39.654Z,19.30
2022-08-26T03:24:46.197Z,20.05
2022-08-26T03:30:06.636Z,19.27
2022-08-26T03:35:09.566Z,19.30
2022-08-26T03:40:12.173Z,19.65
2022-08-26T03:45:15.431Z,18.75
2022-08-26T03:50:23.022Z,19.23
2022-08-26T03:55:28.233Z,18.88
2022-08-26T04:00:30.700Z,18.17
2022-08-26T04:05:32.402Z,18.98
2022-08-26T04:10:34.148Z,19.05
2022-08-26T04:15:35.853Z,17.33
2022-08-26T04:20:37.922Z,18.98
2022-08-26T04:25:40.575Z,18.92
2022-08-26T04:30:42.502Z,19.50
2022-08-26T04:35:45.256Z,20.33
2022-08-26T04:40:49.818Z,19.05
2022-08-26T04:45:51.454Z,18.77
2022-08-26T04:50:53.309Z,20.17
2022-08-26T04:55:55.215Z,20.27
2022-08-26T05:00:57.165Z,18.02
2022-08-26T05:05:58.789Z,19.35
2022-08-26T05:11:04.810Z,19.80
2022-08-26T05:16:11.598Z,18.95
2022-08-26T05:21:22.176Z,19.77
2022-08-26T05:26:27.522Z,19.52
2022-08-26T05:31:32.632Z,18.15
2022-08-26T05:36:39.302Z,20.35
2022-08-26T05:41:42.890Z,21.50
2022-08-26T05:46:46.785Z,21.27
2022-08-26T05:51:48.512Z,23.17
2022-08-26T05:56:52.576Z,19.95
2022-08-26T06:01:57.363Z,20.30
2022-08-26T06:06:59.977Z,20.95
2022-08-26T06:12:01.914Z,19.45
2022-08-26T06:17:04.412Z,20.63
2022-08-26T06:22:26.170Z,21.42
2022-08-26T06:27:32.498Z,21.80
2022-08-26T06:32:34.593Z,22.70
2022-08-26T06:37:36.834Z,22.60
2022-08-26T06:42:38.647Z,21.92
2022-08-26T06:47:40.916Z,21.45
2022-08-26T06:52:42.635Z,17.83
2022-08-26T06:57:44.281Z,19.75
2022-08-26T07:02:46.958Z,19.55
2022-08-26T07:07:49.255Z,19.15
2022-08-26T07:12:51.476Z,17.48
2022-08-26T07:17:53.084Z,15.02
2022-08-26T07:22:54.893Z,15.48
2022-08-26T07:27:56.611Z,15.45
2022-08-26T07:32:59.260Z,18.52
2022-08-26T07:38:01.708Z,14.70
2022-08-26T07:43:03.955Z,13.40
2022-08-26T07:48:05.875Z,13.15
2022-08-26T07:53:10.810Z,13.85
2022-08-26T07:58:12.850Z,12.77
2022-08-26T08:03:15.169Z,13.27
2022-08-26T08:08:26.727Z,11.95
2022-08-26T08:13:30.082Z,12.05
2022-08-26T08:18:31.891Z,10.70
2022-08-26T08:23:33.886Z,10.35
2022-08-26T08:28:37.017Z,10.25
2022-08-26T08:33:38.737Z,9.82
2022-08-26T08:38:40.581Z,9.82
2022-08-26T08:43:47.444Z,9.00
2022-08-26T08:48:59.255Z,8.48
2022-08-26T08:54:02.685Z,9.82
2022-08-26T08:59:18.750Z,7.95
2022-08-26T09:04:43.467Z,8.60
2022-08-26T09:10:00.866Z,8.65
2022-08-26T09:15:07.850Z,8.77
2022-08-26T09:20:37.831Z,7.85
2022-08-26T09:25:49.969Z,7.50
2022-08-26T09:31:14.097Z,7.32
2022-08-26T09:36:18.814Z,10.05
2022-08-26T09:41:33.131Z,7.45
2022-08-26T09:46:35.608Z,7.93
2022-08-26T09:51:37.558Z,9.40
2022-08-26T09:56:39.770Z,8.43
2022-08-26T10:01:44.778Z,8.63
2022-08-26T10:07:08.129Z,8.93
2022-08-26T10:12:19.306Z,9.32
2022-08-26T10:17:26.604Z,10.40
2022-08-26T10:22:47.680Z,9.70
2022-08-26T10:28:03.235Z,8.95
2022-08-26T10:33:11.045Z,10.50
2022-08-26T10:38:17.025Z,9.20
2022-08-26T10:43:27.158Z,9.38
2022-08-26T10:48:59.995Z,9.45
2022-08-26T10:54:01.828Z,8.30
2022-08-26T10:59:38.504Z,8.73
2022-08-26T11:04:59.059Z,7.75
2022-08-26T11:10:20.611Z,7.35
2022-08-26T11:15:26.078Z,8.07
2022-08-26T11:20:41.581Z,7.45
2022-08-26T11:26:01.953Z,8.88
2022-08-26T11:31:08.596Z,7.25
2022-08-26T11:36:26.052Z,8.07
2022-08-26T11:41:30.891Z,8.23
2022-08-26T11:46:37.489Z,7.60
2022-08-26T11:51:40.851Z,8.15
2022-08-26T11:56:46.866Z,7.63
2022-08-26T12:01:51.274Z,6.47
2022-08-26T12:06:53.431Z,7.33
2022-08-26T12:12:16.462Z,6.70
2022-08-26T12:17:26.962Z,5.20
2022-08-26T12:22:32.121Z,6.00
2022-08-26T12:27:39.867Z,5.25
2022-08-26T12:32:57.511Z,5.60
2022-08-26T12:38:00.027Z,5.20
2022-08-26T12:43:04.987Z,4.90
2022-08-26T12:53:10.254Z,5.40
2022-08-26T12:58:15.755Z,5.60
2022-08-26T13:03:35.323Z,5.13
2022-08-26T13:08:40.484Z,4.88
2022-08-26T13:13:42.174Z,4.53
2022-08-26T13:18:43.806Z,4.60
2022-08-26T13:23:46.481Z,5.20
2022-08-26T13:29:02.001Z,5.07
2022-08-26T13:34:04.848Z,4.50
2022-08-26T13:39:06.696Z,3.78
2022-08-26T13:44:08.363Z,4.90
2022-08-26T13:49:10.668Z,3.83
2022-08-26T13:54:12.366Z,3.80
2022-08-26T13:59:14.372Z,3.63
2022-08-26T14:04:15.965Z,3.92
2022-08-26T14:09:24.908Z,3.95
2022-08-26T14:14:26.939Z,4.30
2022-08-26T14:19:30.051Z,3.70
2022-08-26T14:24:31.669Z,3.60
2022-08-26T14:29:33.413Z,4.25
2022-08-26T14:34:35.205Z,4.00
2022-08-26T14:39:37.343Z,4.07
2022-08-26T14:44:43.483Z,3.20
2022-08-26T14:49:45.158Z,3.28
2022-08-26T14:54:46.786Z,2.65
2022-08-26T14:59:50.473Z,2.08
2022-08-26T15:04:52.220Z,2.40
2022-08-26T15:09:53.855Z,1.88
2022-08-26T15:14:55.583Z,2.60
2022-08-26T15:19:57.688Z,2.10
2022-08-26T15:24:59.533Z,2.15
2022-08-26T15:30:10.548Z,1.88
2022-08-26T15:35:12.185Z,1.70
2022-08-26T15:40:13.928Z,2.08
2022-08-26T15:45:25.994Z,1.95
2022-08-26T15:50:29.024Z,2.53
2022-08-26T15:55:30.613Z,2.75
2022-08-26T16:00:32.960Z,3.67
2022-08-26T16:05:39.255Z,4.03
2022-08-26T16:10:49.204Z,3.80
2022-08-26T16:15:52.842Z,4.45
2022-08-26T16:21:12.729Z,4.00
2022-08-26T16:26:24.276Z,4.38
2022-08-26T16:31:26.129Z,5.25
2022-08-26T16:36:27.849Z,4.97
2022-08-26T16:41:31.742Z,4.70
2022-08-26T16:46:35.644Z,4.43
2022-08-26T16:51:38.450Z,5.07
2022-08-26T16:56:40.263Z,4.15
2022-08-26T17:01:41.886Z,3.92
2022-08-26T17:06:43.556Z,4.05
2022-08-26T17:11:45.562Z,4.07
2022-08-26T17:16:51.100Z,3.88
2022-08-26T17:26:55.774Z,4.18
2022-08-26T17:31:57.481Z,3.85
2022-08-26T17:36:59.480Z,4.25
2022-08-26T17:42:01.019Z,3.83
2022-08-26T17:47:02.588Z,5.18
2022-08-26T17:52:07.477Z,4.25
2022-08-26T17:57:12.681Z,4.47
2022-08-26T18:02:14.647Z,4.22
2022-08-26T18:07:17.025Z,4.40
2022-08-26T18:12:18.687Z,4.80
2022-08-26T18:17:20.393Z,5.38
2022-08-26T18:22:23.290Z,4.32
2022-08-26T18:27:25.110Z,4.43
2022-08-26T18:32:26.938Z,5.57
2022-08-26T18:37:31.417Z,5.50
2022-08-26T18:42:33.657Z,4.43
2022-08-26T18:47:35.340Z,5.65
2022-08-26T18:52:37.614Z,6.53
2022-08-26T18:57:39.932Z,6.15
2022-08-26T19:02:41.731Z,7.85
2022-08-26T19:07:48.718Z,8.00
2022-08-26T19:12:52.073Z,7.65
2022-08-26T19:17:54.083Z,8.18
2022-08-26T19:22:59.691Z,7.13
2022-08-26T19:28:04.261Z,8.00
2022-08-26T19:33:09.092Z,7.35
2022-08-26T19:38:11.183Z,8.57
2022-08-26T19:43:12.820Z,9.35
2022-08-26T19:48:16.222Z,9.75
2022-08-26T19:53:17.917Z,9.77
2022-08-26T19:58:21.003Z,9.27
2022-08-26T20:03:24.628Z,9.60
2022-08-26T20:08:26.356Z,9.88
2022-08-26T20:13:29.062Z,10.93
2022-08-26T20:18:49.344Z,10.25
2022-08-26T20:23:51.669Z,9.43
2022-08-26T20:28:53.858Z,10.38
2022-08-26T20:33:55.768Z,10.07
2022-08-26T20:38:58.062Z,10.55
2022-08-26T20:44:00.413Z,9.70
2022-08-26T20:49:02.908Z,8.30
2022-08-26T20:54:07.810Z,9.43
2022-08-26T20:59:09.895Z,9.13
2022-08-26T21:04:15.148Z,8.27
2022-08-26T21:09:17.660Z,8.38
2022-08-26T21:14:22.879Z,7.63
2022-08-26T21:19:27.408Z,8.55
2022-08-26T21:24:29.088Z,8.10
2022-08-26T21:29:30.800Z,7.65
2022-08-26T21:34:32.589Z,9.02
2022-08-26T21:39:34.195Z,8.52
2022-08-26T21:44:35.792Z,8.68
2022-08-26T21:49:37.773Z,8.02
2022-08-26T21:54:39.578Z,8.40
2022-08-26T21:59:41.188Z,7.95
2022-08-26T22:04:46.812Z,7.15
2022-08-26T22:09:50.451Z,8.98
2022-08-26T22:14:52.189Z,6.80
2022-08-26T22:19:54.441Z,7.40
2022-08-26T22:24:56.068Z,6.82
2022-08-26T22:29:57.845Z,9.00
2022-08-26T22:34:59.576Z,8.45
2022-08-26T22:40:01.298Z,8.93
2022-08-26T22:45:05.897Z,7.03
2022-08-26T22:50:08.931Z,7.57
2022-08-26T22:55:10.938Z,6.30
2022-08-26T23:00:14.157Z,6.88
2022-08-26T23:05:16.427Z,6.43
2022-08-26T23:10:18.097Z,7.70
2022-08-26T23:15:20.883Z,6.53
2022-08-26T23:20:22.708Z,6.60
2022-08-26T23:25:24.803Z,7.50
2022-08-26T23:30:28.387Z,7.63
2022-08-26T23:35:30.168Z,7.10
2022-08-26T23:40:34.912Z,7.57
2022-08-26T23:45:37.148Z,6.68
2022-08-26T23:50:57.381Z,6.07
2022-08-26T23:55:59.007Z,7.05
